Time;durP1;ratioP1;P1;durP2;ratioP2;P2;SDS_P1;SDS_P2;PMS_P1;PMS_P2;Temp;Humidity;BMP_temperature;BMP_pressure;BME280_temperature;BME280_humidity;BME280_pressure;Samples;Min_cycle;Max_cycle;Signal;HPM_P1;HPM_P2
2023/12/11 00:01:10;;;;;;;32.57;5.60;;;10.00;99.90;;;;;;5073996;28;20037;-82
2023/12/11 00:03:36;;;;;;;33.83;5.55;;;10.00;99.90;;;;;;5073637;28;20480;-83
2023/12/11 00:06:02;;;;;;;38.13;6.93;;;10.00;99.90;;;;;;5073443;28;20032;-83
2023/12/11 00:08:28;;;;;;;33.20;6.30;;;10.00;99.90;;;;;;5074240;28;20032;-84
2023/12/11 00:10:53;;;;;;;34.30;5.80;;;10.00;99.90;;;;;;5056244;28;20029;-83
2023/12/11 00:13:19;;;;;;;38.13;5.55;;;10.00;99.90;;;;;;5073427;28;20040;-83
2023/12/11 00:15:45;;;;;;;39.13;5.15;;;9.90;99.90;;;;;;5073539;28;20037;-83
2023/12/11 00:18:10;;;;;;;35.03;5.10;;;9.90;99.90;;;;;;5055516;28;20036;-83
2023/12/11 00:20:37;;;;;;;33.40;5.73;;;9.90;99.90;;;;;;5073727;28;20039;-82
2023/12/11 00:23:02;;;;;;;41.17;6.47;;;9.90;99.90;;;;;;5073407;28;20061;-83
2023/12/11 00:25:28;;;;;;;30.43;5.13;;;9.90;99.90;;;;;;5073480;28;20102;-82
2023/12/11 00:27:54;;;;;;;35.83;5.43;;;9.80;99.90;;;;;;5073029;28;20033;-83
2023/12/11 00:30:19;;;;;;;25.20;5.13;;;9.80;99.90;;;;;;5073501;28;20033;-84
2023/12/11 00:32:45;;;;;;;26.10;4.82;;;9.80;99.90;;;;;;5073392;28;20119;-83
2023/12/11 00:35:11;;;;;;;29.37;4.67;;;9.80;99.90;;;;;;5055470;28;20464;-83
2023/12/11 00:37:36;;;;;;;35.00;5.00;;;9.80;99.90;;;;;;5073171;28;20128;-84
2023/12/11 00:40:02;;;;;;;43.27;6.20;;;9.80;99.90;;;;;;5073838;28;20476;-83
2023/12/11 00:42:28;;;;;;;45.40;6.60;;;9.70;99.90;;;;;;5073181;28;20035;-82
2023/12/11 00:44:54;;;;;;;39.67;6.33;;;9.70;99.90;;;;;;5073630;28;20111;-82
2023/12/11 00:47:20;;;;;;;38.00;6.20;;;9.70;99.90;;;;;;5073049;28;20036;-81
2023/12/11 00:49:46;;;;;;;34.20;5.83;;;9.70;99.90;;;;;;5073613;28;20522;-81
2023/12/11 00:52:12;;;;;;;36.60;5.30;;;9.70;99.90;;;;;;5072896;28;20037;-82
2023/12/11 00:54:38;;;;;;;30.80;5.73;;;9.70;99.90;;;;;;5073343;28;20102;-81
2023/12/11 00:57:03;;;;;;;35.27;5.30;;;9.70;99.90;;;;;;5054940;28;20185;-82
2023/12/11 00:59:29;;;;;;;45.40;6.93;;;9.70;99.90;;;;;;5054702;28;20048;-82
2023/12/11 01:01:55;;;;;;;41.33;5.73;;;9.70;99.90;;;;;;5054649;28;20488;-82
2023/12/11 01:04:21;;;;;;;32.67;5.10;;;9.70;99.90;;;;;;5054550;28;20040;-82
2023/12/11 01:06:46;;;;;;;36.23;5.33;;;9.70;99.90;;;;;;5073053;28;20044;-82
2023/12/11 01:09:12;;;;;;;35.20;6.20;;;9.70;99.90;;;;;;5073006;28;20087;-82
2023/12/11 01:11:39;;;;;;;33.00;5.33;;;9.70;99.90;;;;;;5072562;28;20032;-81
2023/12/11 01:14:05;;;;;;;42.57;5.63;;;9.70;99.90;;;;;;5072702;28;20032;-81
2023/12/11 01:16:30;;;;;;;34.67;5.67;;;9.70;99.90;;;;;;5054748;28;20040;-82
2023/12/11 01:18:56;;;;;;;29.83;4.67;;;9.70;99.90;;;;;;5054936;28;20082;-82
2023/12/11 01:21:22;;;;;;;32.50;5.82;;;9.70;99.90;;;;;;5054796;28;20029;-82
2023/12/11 01:23:47;;;;;;;38.20;6.63;;;9.70;99.90;;;;;;5054419;28;20039;-82
2023/12/11 01:26:13;;;;;;;33.23;5.87;;;9.70;99.90;;;;;;5054873;28;20040;-81
2023/12/11 01:28:39;;;;;;;42.08;5.57;;;9.80;99.90;;;;;;5072659;28;20459;-81
2023/12/11 01:31:04;;;;;;;38.97;5.93;;;9.80;99.90;;;;;;5072540;28;20069;-82
2023/12/11 01:33:31;;;;;;;41.73;6.03;;;9.80;99.90;;;;;;5072397;28;20029;-82
2023/12/11 01:35:57;;;;;;;31.63;5.00;;;9.80;99.90;;;;;;5054380;28;20509;-82
2023/12/11 01:38:22;;;;;;;33.47;4.70;;;9.80;99.90;;;;;;5054423;28;20480;-83
2023/12/11 01:40:48;;;;;;;40.37;6.70;;;9.80;99.90;;;;;;5072571;28;20052;-82
2023/12/11 01:43:21;;;;;;;42.17;5.70;;;9.70;99.90;;;;;;5054416;28;20056;-81
2023/12/11 01:46:03;;;;;;;36.70;5.93;;;9.70;99.90;;;;;;5054474;28;20138;-80
2023/12/11 01:48:29;;;;;;;39.33;5.87;;;9.70;99.90;;;;;;5072663;28;20036;-83
2023/12/11 01:50:55;;;;;;;35.50;5.73;;;9.80;99.90;;;;;;5072654;28;20369;-82
2023/12/11 01:53:21;;;;;;;35.60;4.70;;;9.70;99.90;;;;;;5054217;28;20029;-82
2023/12/11 01:55:48;;;;;;;29.30;4.60;;;9.80;99.90;;;;;;5054919;28;20557;-81
2023/12/11 01:58:15;;;;;;;23.50;4.03;;;9.80;99.90;;;;;;5072583;28;20028;-82
2023/12/11 02:00:41;;;;;;;40.80;6.10;;;9.90;99.90;;;;;;5054334;28;20028;-82
2023/12/11 02:03:07;;;;;;;32.17;4.57;;;9.90;99.90;;;;;;5072499;28;20033;-82
2023/12/11 02:05:32;;;;;;;31.50;6.33;;;9.90;99.90;;;;;;5072263;28;20056;-81
2023/12/11 02:07:58;;;;;;;38.73;5.93;;;9.90;99.90;;;;;;5054350;28;20056;-82
2023/12/11 02:10:24;;;;;;;44.28;6.25;;;9.90;99.90;;;;;;5054412;28;20033;-82
2023/12/11 02:12:50;;;;;;;32.00;5.67;;;10.00;99.90;;;;;;5054483;28;20477;-82
2023/12/11 02:15:40;;;;;;;29.05;4.10;;;9.90;99.90;;;;;;5072041;28;20028;-82
2023/12/11 02:18:07;;;;;;;42.73;6.77;;;10.00;99.90;;;;;;5075915;28;20044;-81
2023/12/11 02:20:32;;;;;;;37.47;4.95;;;10.00;99.90;;;;;;5075776;28;20037;-81
2023/12/11 02:23:03;;;;;;;36.47;6.87;;;10.00;99.90;;;;;;5057776;28;20444;-82
2023/12/11 02:25:31;;;;;;;35.65;5.97;;;10.10;99.90;;;;;;5075904;28;20056;-82
2023/12/11 02:28:17;;;;;;;33.35;5.57;;;10.10;99.90;;;;;;5057414;28;20078;-82
2023/12/11 02:30:50;;;;;;;43.10;5.80;;;10.10;99.90;;;;;;5056192;28;20063;-82
2023/12/11 02:33:17;;;;;;;35.35;5.60;;;10.10;99.90;;;;;;5075527;28;20369;-83
2023/12/11 02:35:43;;;;;;;43.30;6.67;;;10.20;99.90;;;;;;5075041;28;20089;-82
2023/12/11 02:38:09;;;;;;;35.78;5.10;;;10.10;99.90;;;;;;5057393;28;20549;-82
2023/12/11 02:40:35;;;;;;;29.42;4.60;;;10.20;99.90;;;;;;5075411;28;20033;-83
2023/12/11 02:43:01;;;;;;;44.85;6.28;;;10.20;99.90;;;;;;5075181;28;20075;-82
2023/12/11 02:45:26;;;;;;;34.73;5.77;;;10.20;99.90;;;;;;5057421;28;20028;-82
2023/12/11 02:47:55;;;;;;;34.83;5.53;;;10.20;99.90;;;;;;5057497;28;20159;-83
2023/12/11 02:50:20;;;;;;;30.87;5.37;;;10.20;99.90;;;;;;5075256;28;20035;-83
2023/12/11 02:52:46;;;;;;;32.90;5.17;;;10.10;99.90;;;;;;5075352;28;20032;-83
2023/12/11 02:55:11;;;;;;;40.87;5.07;;;10.00;99.90;;;;;;5057423;28;20075;-83
2023/12/11 02:57:37;;;;;;;42.90;4.90;;;9.90;99.90;;;;;;5075024;28;20039;-83
2023/12/11 03:00:03;;;;;;;34.70;5.33;;;9.80;99.90;;;;;;5057237;28;20109;-83
2023/12/11 03:02:29;;;;;;;39.10;5.97;;;9.80;99.90;;;;;;5075395;28;20025;-85
2023/12/11 03:04:54;;;;;;;35.37;5.60;;;9.70;99.90;;;;;;5057133;28;20032;-83
2023/12/11 03:07:20;;;;;;;40.43;5.37;;;9.60;99.90;;;;;;5057230;28;20039;-83
2023/12/11 03:09:46;;;;;;;41.63;5.53;;;9.60;99.90;;;;;;5075250;28;20472;-83
2023/12/11 03:12:11;;;;;;;37.27;4.23;;;9.60;99.90;;;;;;5074377;28;20123;-82
2023/12/11 03:14:37;;;;;;;26.70;4.50;;;9.50;99.90;;;;;;5074524;28;20061;-84
2023/12/11 03:17:03;;;;;;;32.93;4.63;;;9.50;99.90;;;;;;5056755;28;20032;-83
2023/12/11 03:19:28;;;;;;;38.20;5.20;;;9.50;99.90;;;;;;5074928;28;20040;-84
2023/12/11 03:21:55;;;;;;;39.90;6.50;;;9.50;99.90;;;;;;5057225;28;20037;-84
2023/12/11 03:24:21;;;;;;;35.20;4.60;;;9.50;99.90;;;;;;5056441;28;20032;-82
2023/12/11 03:26:46;;;;;;;32.07;5.00;;;9.50;99.90;;;;;;5074147;28;20036;-83
2023/12/11 03:29:12;;;;;;;32.73;3.93;;;9.40;99.90;;;;;;5069795;28;20044;-81
2023/12/11 03:31:38;;;;;;;32.33;5.27;;;9.40;99.90;;;;;;5053012;28;20119;-83
2023/12/11 03:34:03;;;;;;;31.20;4.70;;;9.30;99.90;;;;;;5053151;28;20127;-82
2023/12/11 03:36:29;;;;;;;32.40;5.10;;;9.30;99.90;;;;;;5054507;28;20037;-84
2023/12/11 03:38:55;;;;;;;57.50;7.07;;;9.30;99.90;;;;;;5039704;28;20044;-82
2023/12/11 03:41:21;;;;;;;43.37;6.23;;;9.30;99.90;;;;;;5033063;28;20041;-82
2023/12/11 03:43:46;;;;;;;25.93;4.03;;;9.30;99.90;;;;;;5034370;28;20049;-81
2023/12/11 03:46:12;;;;;;;29.40;3.93;;;9.20;99.90;;;;;;5033085;28;20065;-82
2023/12/11 03:48:38;;;;;;;30.47;4.60;;;9.20;99.90;;;;;;5032769;28;20033;-82
2023/12/11 03:51:04;;;;;;;28.53;4.33;;;9.20;99.90;;;;;;5034254;28;20100;-83
2023/12/11 03:53:29;;;;;;;33.67;4.10;;;9.20;99.90;;;;;;5034398;28;20061;-82
2023/12/11 03:55:55;;;;;;;28.70;5.33;;;9.20;99.90;;;;;;5032491;28;20075;-83
2023/12/11 03:58:21;;;;;;;29.03;4.63;;;9.20;99.90;;;;;;5032826;28;20036;-83
2023/12/11 04:00:46;;;;;;;32.07;4.60;;;9.20;99.90;;;;;;5033843;28;20045;-82
2023/12/11 04:03:13;;;;;;;30.17;4.07;;;9.20;99.90;;;;;;5033706;28;20038;-81
2023/12/11 04:05:39;;;;;;;24.47;4.47;;;9.20;99.90;;;;;;5034244;28;20029;-81
2023/12/11 04:08:05;;;;;;;39.27;5.43;;;9.20;99.90;;;;;;5032605;28;20030;-81
2023/12/11 04:10:31;;;;;;;26.77;4.47;;;9.20;99.90;;;;;;5032293;28;20025;-81
2023/12/11 04:13:00;;;;;;;23.33;3.50;;;9.20;99.90;;;;;;5032545;28;20033;-82
2023/12/11 04:15:25;;;;;;;31.37;5.03;;;9.20;99.90;;;;;;5032487;28;20117;-82
2023/12/11 04:17:51;;;;;;;24.00;4.50;;;9.20;99.90;;;;;;5033603;28;20131;-83
2023/12/11 04:20:17;;;;;;;29.00;5.23;;;9.20;99.90;;;;;;5033705;28;20030;-82
2023/12/11 04:22:42;;;;;;;34.57;6.37;;;9.20;99.90;;;;;;5032499;28;20025;-82
2023/12/11 04:25:08;;;;;;;31.27;6.07;;;9.20;99.90;;;;;;5032116;28;20559;-82
2023/12/11 04:27:34;;;;;;;28.30;5.70;;;9.20;99.90;;;;;;5033342;28;20075;-82
2023/12/11 04:29:59;;;;;;;32.73;5.50;;;9.30;99.90;;;;;;5033550;28;20083;-81
2023/12/11 04:32:25;;;;;;;28.37;5.90;;;9.30;99.90;;;;;;5032208;28;20087;-83
2023/12/11 04:34:50;;;;;;;37.87;6.00;;;9.30;99.90;;;;;;5032399;28;20037;-82
2023/12/11 04:37:16;;;;;;;45.93;6.77;;;9.30;99.90;;;;;;5015631;28;20029;-81
2023/12/11 04:39:42;;;;;;;36.27;6.40;;;9.30;99.90;;;;;;5031332;28;20037;-82
2023/12/11 04:42:07;;;;;;;38.87;5.80;;;9.30;99.90;;;;;;5031809;28;20116;-81
2023/12/11 04:44:33;;;;;;;38.37;5.50;;;9.30;99.90;;;;;;5032004;28;20029;-80
2023/12/11 04:46:59;;;;;;;42.73;5.80;;;9.30;99.90;;;;;;5031793;28;20060;-82
2023/12/11 04:49:24;;;;;;;41.43;5.47;;;9.30;99.90;;;;;;5032044;28;20485;-82
2023/12/11 04:51:50;;;;;;;37.73;5.67;;;9.30;99.90;;;;;;5031924;28;20477;-82
2023/12/11 04:54:16;;;;;;;32.73;5.10;;;9.30;99.90;;;;;;5032953;28;20034;-83
2023/12/11 04:56:41;;;;;;;53.23;6.83;;;9.30;99.90;;;;;;5031716;28;20451;-83
2023/12/11 04:59:07;;;;;;;47.63;6.20;;;9.30;99.90;;;;;;5033139;28;20037;-84
2023/12/11 05:01:32;;;;;;;40.43;6.37;;;9.30;99.90;;;;;;5031823;28;20036;-82
2023/12/11 05:03:58;;;;;;;39.97;5.43;;;9.30;99.90;;;;;;5031768;28;20045;-82
2023/12/11 05:06:24;;;;;;;34.93;5.73;;;9.30;99.90;;;;;;5031787;28;20473;-82
2023/12/11 05:08:49;;;;;;;42.37;5.47;;;9.30;99.90;;;;;;5032869;28;20092;-83
2023/12/11 05:11:15;;;;;;;55.97;6.30;;;9.40;99.90;;;;;;5031588;28;20033;-82
2023/12/11 05:13:41;;;;;;;43.43;6.40;;;9.30;99.90;;;;;;5033030;28;20033;-82
2023/12/11 05:16:07;;;;;;;36.03;5.50;;;9.40;99.90;;;;;;5031684;28;20029;-82
2023/12/11 05:18:33;;;;;;;47.70;7.30;;;9.40;99.90;;;;;;5031821;28;20033;-82
2023/12/11 05:21:04;;;;;;;40.83;4.60;;;9.40;99.90;;;;;;5015187;28;20183;-83
2023/12/11 05:23:30;;;;;;;36.97;4.17;;;9.40;99.90;;;;;;5032860;28;20034;-82
2023/12/11 05:25:55;;;;;;;49.30;5.27;;;9.40;99.90;;;;;;5033203;28;20547;-83
2023/12/11 05:28:21;;;;;;;32.47;5.23;;;9.40;99.90;;;;;;5033136;28;20536;-83
2023/12/11 05:30:47;;;;;;;40.43;5.63;;;9.30;99.90;;;;;;5031781;28;20044;-84
2023/12/11 05:33:12;;;;;;;46.37;5.20;;;9.40;99.90;;;;;;5032638;28;20041;-83
2023/12/11 05:35:38;;;;;;;47.47;5.83;;;9.40;99.90;;;;;;5033879;28;20033;-83
2023/12/11 05:38:04;;;;;;;45.47;6.43;;;9.40;99.90;;;;;;5014893;28;20041;-82
2023/12/11 05:40:29;;;;;;;47.33;5.53;;;9.40;99.90;;;;;;5014544;28;20033;-83
2023/12/11 05:42:55;;;;;;;37.17;5.97;;;9.40;99.90;;;;;;5014754;28;20037;-82
2023/12/11 05:45:21;;;;;;;40.17;6.83;;;9.40;99.90;;;;;;5015038;28;20033;-83
2023/12/11 05:47:46;;;;;;;47.77;5.97;;;9.50;99.90;;;;;;5014725;28;20037;-83
2023/12/11 05:50:12;;;;;;;45.70;5.93;;;9.40;99.90;;;;;;5014859;28;20087;-84
2023/12/11 05:52:38;;;;;;;40.63;6.40;;;9.40;99.90;;;;;;5036026;28;20040;-82
2023/12/11 05:55:05;;;;;;;41.20;5.80;;;9.40;99.90;;;;;;5036055;28;20029;-81
2023/12/11 05:57:30;;;;;;;39.83;4.93;;;9.40;99.90;;;;;;5034996;28;20030;-82
2023/12/11 05:59:56;;;;;;;48.60;6.10;;;9.40;99.90;;;;;;5036208;28;20053;-82
2023/12/11 06:02:22;;;;;;;42.30;6.53;;;9.50;99.90;;;;;;5036268;28;20512;-82
2023/12/11 06:04:47;;;;;;;42.20;5.30;;;9.40;99.90;;;;;;5034987;28;20034;-82
2023/12/11 06:07:13;;;;;;;46.50;5.90;;;9.40;99.90;;;;;;5036329;28;20037;-82
2023/12/11 06:09:39;;;;;;;42.80;5.33;;;9.40;99.90;;;;;;5034825;28;20026;-81
2023/12/11 06:12:05;;;;;;;49.33;5.63;;;9.50;99.90;;;;;;5035978;28;20029;-82
2023/12/11 06:14:31;;;;;;;32.53;4.53;;;9.50;99.90;;;;;;5018353;28;20049;-80
2023/12/11 06:16:57;;;;;;;40.63;4.93;;;9.50;99.90;;;;;;5036038;28;20025;-81
2023/12/11 06:19:22;;;;;;;33.83;4.47;;;9.50;99.90;;;;;;5018359;28;20052;-82
2023/12/11 06:21:48;;;;;;;27.87;4.67;;;9.50;99.90;;;;;;5018104;28;20508;-81
2023/12/11 06:24:14;;;;;;;32.53;4.57;;;9.50;99.90;;;;;;5034375;28;20034;-80
2023/12/11 06:26:42;;;;;;;42.23;5.07;;;9.50;99.90;;;;;;5036156;28;20100;-80
2023/12/11 06:29:08;;;;;;;33.63;3.43;;;9.50;99.90;;;;;;5035598;28;20025;-81
2023/12/11 06:31:34;;;;;;;37.03;5.53;;;9.40;99.90;;;;;;5018150;28;20112;-81
2023/12/11 06:34:00;;;;;;;37.00;4.73;;;9.50;99.90;;;;;;5035661;28;20053;-80
2023/12/11 06:36:28;;;;;;;31.80;4.63;;;9.40;99.90;;;;;;5034617;28;20037;-83
2023/12/11 06:38:54;;;;;;;37.67;4.43;;;9.40;99.90;;;;;;5036358;28;20049;-84
2023/12/11 06:41:20;;;;;;;35.47;4.83;;;9.40;99.90;;;;;;5037180;28;20092;-84
2023/12/11 06:43:52;;;;;;;38.60;4.33;;;9.40;99.90;;;;;;5056006;28;20473;-84
2023/12/11 06:46:18;;;;;;;29.13;3.53;;;9.40;99.90;;;;;;5037744;28;20037;-82
2023/12/11 06:48:44;;;;;;;33.30;5.67;;;9.40;99.90;;;;;;5036823;28;20435;-84
2023/12/11 06:51:10;;;;;;;31.17;3.63;;;9.40;99.90;;;;;;5052324;28;20033;-85
2023/12/11 06:53:36;;;;;;;21.17;3.00;;;9.30;99.90;;;;;;5036883;28;20029;-83
2023/12/11 06:56:02;;;;;;;29.57;4.50;;;9.40;99.90;;;;;;5055197;28;20033;-86
2023/12/11 06:58:27;;;;;;;45.67;6.00;;;9.30;99.90;;;;;;5040272;28;20104;-85
2023/12/11 07:00:53;;;;;;;33.33;4.70;;;9.30;99.90;;;;;;5037451;28;20048;-84
2023/12/11 07:03:19;;;;;;;37.77;5.23;;;9.30;99.90;;;;;;5055157;28;20676;-84
2023/12/11 07:05:44;;;;;;;33.50;4.50;;;9.30;99.90;;;;;;5056034;28;20483;-88
2023/12/11 07:08:10;;;;;;;35.77;4.27;;;9.30;99.90;;;;;;5033841;28;20036;-87
2023/12/11 07:10:36;;;;;;;31.80;4.37;;;9.30;99.90;;;;;;5037579;28;20033;-86
2023/12/11 07:13:05;;;;;;;36.17;4.63;;;9.30;99.90;;;;;;5054675;28;20033;-86
2023/12/11 07:15:30;;;;;;;35.60;4.83;;;9.40;99.90;;;;;;5020695;28;20029;-87
2023/12/11 07:17:56;;;;;;;37.90;4.20;;;9.40;99.90;;;;;;5018582;28;20493;-87
2023/12/11 07:20:22;;;;;;;40.07;4.60;;;9.30;99.90;;;;;;5034888;28;20116;-83
2023/12/11 07:22:49;;;;;;;36.20;4.47;;;9.30;99.90;;;;;;5032868;28;20037;-85
2023/12/11 07:25:16;;;;;;;40.93;4.73;;;9.40;99.90;;;;;;5054922;28;20488;-84
2023/12/11 07:27:43;;;;;;;36.00;4.77;;;9.40;99.90;;;;;;5036698;28;20127;-82
2023/12/11 07:30:09;;;;;;;34.20;5.33;;;9.40;99.90;;;;;;5036619;28;20040;-81
2023/12/11 07:32:35;;;;;;;35.40;4.70;;;9.30;99.90;;;;;;5056083;28;20028;-87
2023/12/11 07:35:01;;;;;;;32.60;5.27;;;9.40;99.90;;;;;;5038323;28;20033;-87
2023/12/11 07:37:27;;;;;;;31.70;4.30;;;9.40;99.90;;;;;;5054344;28;20397;-87
2023/12/11 07:39:52;;;;;;;30.97;4.13;;;9.40;99.90;;;;;;5077924;28;20396;-86
2023/12/11 07:42:18;;;;;;;27.10;4.53;;;9.40;99.90;;;;;;5059137;28;20043;-87
2023/12/11 07:44:44;;;;;;;37.80;4.50;;;9.40;99.90;;;;;;5076018;28;20032;-87
2023/12/11 07:47:09;;;;;;;29.53;3.57;;;9.30;99.90;;;;;;5076128;28;20565;-86
2023/12/11 07:49:35;;;;;;;24.77;2.77;;;9.30;99.90;;;;;;5057449;28;20059;-85
2023/12/11 07:52:02;;;;;;;30.30;3.47;;;9.30;99.90;;;;;;5056963;28;20393;-84
2023/12/11 07:54:27;;;;;;;22.60;2.30;;;9.30;99.90;;;;;;5056690;28;20051;-85
2023/12/11 07:56:53;;;;;;;24.60;3.23;;;9.30;99.90;;;;;;5047841;28;20489;-84
2023/12/11 07:59:19;;;;;;;20.03;3.00;;;9.20;99.90;;;;;;5054485;28;20060;-84
2023/12/11 08:01:45;;;;;;;22.67;2.63;;;9.20;99.90;;;;;;5054026;28;20041;-85
2023/12/11 08:04:12;;;;;;;17.70;2.63;;;9.20;99.90;;;;;;5036602;28;20037;-87
2023/12/11 08:06:41;;;;;;;20.73;3.10;;;9.20;99.90;;;;;;5056579;28;20102;-87
2023/12/11 08:09:08;;;;;;;22.93;3.87;;;9.20;99.90;;;;;;5065227;28;20024;-85
2023/12/11 08:11:34;;;;;;;20.07;2.23;;;9.20;99.90;;;;;;5055734;28;20029;-83
2023/12/11 08:13:59;;;;;;;28.30;3.77;;;9.20;99.90;;;;;;5073920;28;20028;-85
2023/12/11 08:16:25;;;;;;;24.70;2.53;;;9.30;99.90;;;;;;5055797;28;20075;-85
2023/12/11 08:18:51;;;;;;;23.37;3.07;;;9.30;99.90;;;;;;5074249;28;20025;-87
2023/12/11 08:21:17;;;;;;;24.03;3.40;;;9.30;99.90;;;;;;5056531;28;20098;-84
2023/12/11 08:23:44;;;;;;;19.07;2.73;;;9.20;99.90;;;;;;5055970;28;20036;-84
2023/12/11 08:26:10;;;;;;;28.77;3.00;;;9.20;99.90;;;;;;5057956;28;20510;-85
2023/12/11 08:28:36;;;;;;;19.37;3.00;;;9.20;99.90;;;;;;5057435;28;20024;-87
2023/12/11 08:31:03;;;;;;;20.70;2.97;;;9.20;99.90;;;;;;5075585;28;20047;-86
2023/12/11 08:33:29;;;;;;;25.20;3.33;;;9.20;99.90;;;;;;5073732;28;20033;-87
2023/12/11 08:35:55;;;;;;;26.60;3.20;;;9.20;99.90;;;;;;5056541;28;20029;-86
2023/12/11 08:38:22;;;;;;;11.37;3.50;;;9.10;99.90;;;;;;5053384;28;20043;-84
2023/12/11 08:40:49;;;;;;;19.47;4.30;;;9.10;99.90;;;;;;5074187;28;20159;-87
2023/12/11 08:43:15;;;;;;;23.37;4.30;;;9.10;99.90;;;;;;5055544;28;20028;-84
2023/12/11 08:45:40;;;;;;;15.83;3.57;;;9.10;99.90;;;;;;5073803;28;20036;-85
2023/12/11 08:48:06;;;;;;;17.93;3.43;;;9.10;99.90;;;;;;5074078;28;20082;-84
2023/12/11 08:50:32;;;;;;;11.97;2.90;;;9.10;99.90;;;;;;5073980;28;20033;-83
2023/12/11 08:53:00;;;;;;;20.33;3.63;;;9.10;99.90;;;;;;5074067;28;20036;-84
2023/12/11 08:55:26;;;;;;;21.10;3.40;;;9.10;99.90;;;;;;5074045;28;20116;-86
2023/12/11 08:57:51;;;;;;;24.17;3.53;;;9.10;99.90;;;;;;5055851;28;20052;-83
2023/12/11 09:00:17;;;;;;;27.43;3.80;;;9.10;99.90;;;;;;5055018;28;20598;-85
2023/12/11 09:02:43;;;;;;;18.07;3.60;;;9.10;99.90;;;;;;5055818;28;20037;-86
2023/12/11 09:05:09;;;;;;;21.30;3.50;;;9.10;99.90;;;;;;5055882;28;20106;-82
2023/12/11 09:07:34;;;;;;;22.80;3.57;;;9.20;99.90;;;;;;5072986;28;20040;-87
2023/12/11 09:10:02;;;;;;;14.50;2.73;;;9.20;99.90;;;;;;5073234;28;20029;-87
2023/12/11 09:12:27;;;;;;;21.63;3.17;;;9.20;99.90;;;;;;5073678;28;20063;-85
2023/12/11 09:14:53;;;;;;;18.70;3.67;;;9.20;99.90;;;;;;5054996;28;20071;-83
2023/12/11 09:17:19;;;;;;;20.00;2.93;;;9.20;99.90;;;;;;5073266;28;20040;-85
2023/12/11 09:19:45;;;;;;;20.13;2.17;;;9.20;99.90;;;;;;5073358;28;20135;-85
2023/12/11 09:22:11;;;;;;;13.17;2.53;;;9.30;99.90;;;;;;5055215;28;20089;-83
2023/12/11 09:24:37;;;;;;;12.53;2.53;;;9.30;99.90;;;;;;5055841;28;20032;-83
2023/12/11 09:27:04;;;;;;;13.87;2.70;;;9.30;99.90;;;;;;5059567;28;20092;-85
2023/12/11 09:29:30;;;;;;;16.13;2.23;;;9.30;99.90;;;;;;5076683;28;20035;-82
2023/12/11 09:31:55;;;;;;;19.30;3.13;;;9.30;99.90;;;;;;5060092;28;20024;-84
2023/12/11 09:34:24;;;;;;;15.75;2.55;;;9.30;99.90;;;;;;5077274;28;20096;-85
2023/12/11 09:36:49;;;;;;;12.30;1.93;;;9.30;99.90;;;;;;5059372;28;20128;-86
2023/12/11 09:39:15;;;;;;;11.55;1.42;;;9.40;99.90;;;;;;5058406;28;20072;-85
2023/12/11 09:41:44;;;;;;;13.40;1.97;;;9.30;99.90;;;;;;5058902;28;20032;-83
2023/12/11 09:44:10;;;;;;;18.50;2.60;;;9.30;99.90;;;;;;5058299;28;20043;-88
2023/12/11 09:46:56;;;;;;;14.00;2.33;;;9.40;99.90;;;;;;5058540;28;20033;-85
2023/12/11 09:49:22;;;;;;;14.93;2.33;;;9.40;99.90;;;;;;5057132;28;20028;-85
2023/12/11 09:51:47;;;;;;;10.90;1.47;;;9.40;99.90;;;;;;5076521;28;20104;-86
2023/12/11 09:54:13;;;;;;;16.23;2.10;;;9.40;99.90;;;;;;5059133;28;20025;-84
2023/12/11 09:56:39;;;;;;;13.77;2.10;;;9.40;99.90;;;;;;5058971;28;20550;-84
2023/12/11 09:59:08;;;;;;;14.07;2.17;;;9.50;99.90;;;;;;5076248;28;20040;-86
2023/12/11 10:01:34;;;;;;;11.60;1.80;;;9.40;99.90;;;;;;5058094;28;20021;-85
2023/12/11 10:04:00;;;;;;;12.57;2.33;;;9.50;99.90;;;;;;5059542;28;20488;-84
2023/12/11 10:06:26;;;;;;;7.35;1.33;;;9.50;99.90;;;;;;5077861;28;20017;-85
2023/12/11 10:08:53;;;;;;;13.02;1.50;;;9.50;99.90;;;;;;5066064;28;20033;-84
2023/12/11 10:11:22;;;;;;;16.25;2.47;;;9.60;99.90;;;;;;5078930;28;20024;-86
2023/12/11 10:13:48;;;;;;;17.55;2.88;;;9.50;99.90;;;;;;5056387;28;20074;-87
2023/12/11 10:16:35;;;;;;;17.60;2.90;;;9.50;99.90;;;;;;5076197;28;20036;-84
2023/12/11 10:19:01;;;;;;;16.03;2.93;;;9.50;99.90;;;;;;5053282;28;20025;-88
2023/12/11 10:21:38;;;;;;;17.17;2.30;;;9.40;99.90;;;;;;5040666;28;20031;-88
2023/12/11 10:24:05;;;;;;;19.63;3.00;;;9.40;99.90;;;;;;5057454;28;20111;-85
2023/12/11 10:26:33;;;;;;;25.17;3.37;;;9.40;99.90;;;;;;5059039;28;20020;-87
2023/12/11 10:29:21;;;;;;;16.57;3.27;;;9.40;99.90;;;;;;5057816;28;20048;-85
2023/12/11 10:31:47;;;;;;;17.10;3.30;;;9.40;99.90;;;;;;5039923;28;20029;-83
2023/12/11 10:34:13;;;;;;;19.90;2.73;;;9.40;99.90;;;;;;5055144;28;20033;-84
2023/12/11 10:36:52;;;;;;;18.73;3.03;;;9.40;99.90;;;;;;5056351;28;20044;-88
2023/12/11 10:39:21;;;;;;;19.10;2.55;;;9.50;99.90;;;;;;5075915;28;20094;-87
2023/12/11 10:41:50;;;;;;;18.70;2.27;;;9.50;99.90;;;;;;5074940;28;20392;-86
2023/12/11 10:44:26;;;;;;;20.13;2.95;;;9.50;99.90;;;;;;5073871;28;20529;-87
2023/12/11 10:46:56;;;;;;;13.70;2.47;;;9.50;99.90;;;;;;5051088;28;20036;-85
2023/12/11 10:49:23;;;;;;;18.30;3.20;;;9.60;99.90;;;;;;5054905;28;20024;-86
2023/12/11 10:51:49;;;;;;;22.07;2.87;;;9.50;99.90;;;;;;5057915;28;20037;-86
2023/12/11 10:54:15;;;;;;;17.33;3.37;;;9.60;99.90;;;;;;5075423;28;20036;-86
2023/12/11 10:56:46;;;;;;;19.70;3.17;;;9.60;99.90;;;;;;5057893;28;20120;-84
2023/12/11 10:59:12;;;;;;;20.40;2.57;;;9.50;99.90;;;;;;5058066;28;20480;-85
2023/12/11 11:01:48;;;;;;;17.93;3.00;;;9.60;99.90;;;;;;5075525;28;20039;-86
2023/12/11 11:04:17;;;;;;;17.43;2.27;;;9.70;99.90;;;;;;5057666;28;20086;-84
2023/12/11 11:06:53;;;;;;;14.87;2.30;;;9.70;99.90;;;;;;5057277;28;20036;-87
2023/12/11 11:09:35;;;;;;;16.52;2.75;;;9.70;99.90;;;;;;5057966;28;20051;-85
2023/12/11 11:12:13;;;;;;;16.47;2.60;;;9.80;99.90;;;;;;5058430;28;20037;-84
2023/12/11 11:14:47;;;;;;;15.03;3.17;;;9.70;99.90;;;;;;5059259;28;20021;-85
2023/12/11 11:17:14;;;;;;;8.80;2.13;;;9.80;99.90;;;;;;5055569;28;20044;-86
2023/12/11 11:20:09;;;;;;;7.77;2.17;;;9.90;99.90;;;;;;5075270;28;20036;-87
2023/12/11 11:22:35;;;;;;;10.00;1.50;;;9.90;99.90;;;;;;5057545;28;20028;-85
2023/12/11 11:25:39;;;;;;;10.53;1.50;;;9.80;99.90;;;;;;5058964;28;20041;-85
2023/12/11 11:28:26;;;;;;;11.97;1.30;;;9.80;99.90;;;;;;5076083;28;20040;-85
2023/12/11 11:30:52;;;;;;;10.77;1.53;;;9.70;99.90;;;;;;5056469;28;20115;-89
2023/12/11 11:33:19;;;;;;;11.73;1.80;;;9.70;99.90;;;;;;5076002;28;20036;-84
2023/12/11 11:35:48;;;;;;;8.73;1.30;;;9.70;99.90;;;;;;5075173;28;20055;-87
2023/12/11 11:38:16;;;;;;;12.87;2.27;;;9.80;99.90;;;;;;5075233;28;20119;-85
2023/12/11 11:40:44;;;;;;;9.93;1.60;;;10.00;99.90;;;;;;5057128;28;20270;-85
2023/12/11 11:43:11;;;;;;;11.48;1.30;;;10.30;99.90;;;;;;5056627;28;20048;-86
2023/12/11 11:45:37;;;;;;;15.27;2.40;;;10.70;99.90;;;;;;5057271;28;20020;-84
2023/12/11 11:48:03;;;;;;;8.95;1.30;;;11.00;99.90;;;;;;5076873;28;20363;-87
2023/12/11 11:50:29;;;;;;;9.70;1.35;;;11.40;99.90;;;;;;5066282;28;20502;-85
2023/12/11 11:53:10;;;;;;;8.45;1.08;;;11.80;99.90;;;;;;5066688;28;20028;-85
2023/12/11 11:55:38;;;;;;;13.55;1.55;;;11.90;99.90;;;;;;5085173;28;20039;-87
2023/12/11 11:58:19;;;;;;;11.18;1.42;;;11.90;99.00;;;;;;5054739;28;20045;-86
2023/12/11 12:00:45;;;;;;;7.28;0.95;;;11.90;97.00;;;;;;5054468;28;20429;-86
2023/12/11 12:03:11;;;;;;;9.00;1.23;;;11.80;95.80;;;;;;5059203;28;20484;-87
2023/12/11 12:05:51;;;;;;;10.45;1.52;;;11.60;94.80;;;;;;5064556;28;20035;-87
2023/12/11 12:08:18;;;;;;;10.98;1.27;;;11.30;94.40;;;;;;5086207;28;20073;-87
2023/12/11 12:10:44;;;;;;;7.25;0.77;;;11.20;95.40;;;;;;5066162;28;20082;-85
2023/12/11 12:13:10;;;;;;;6.07;0.93;;;11.10;96.10;;;;;;5084175;28;20489;-84
2023/12/11 12:15:44;;;;;;;12.48;1.30;;;11.10;95.80;;;;;;5085043;28;20518;-87
2023/12/11 12:18:10;;;;;;;14.38;1.95;;;11.00;96.30;;;;;;5066873;28;20115;-84
2023/12/11 12:20:36;;;;;;;14.15;2.10;;;11.00;96.90;;;;;;5065094;28;20051;-84
2023/12/11 12:23:05;;;;;;;12.40;1.60;;;11.00;96.30;;;;;;5065762;28;20261;-87
2023/12/11 12:25:32;;;;;;;14.20;2.08;;;11.00;96.50;;;;;;5063784;28;20472;-85
2023/12/11 12:28:04;;;;;;;6.00;1.05;;;10.90;96.60;;;;;;5077321;28;20027;-84
2023/12/11 12:30:30;;;;;;;13.38;1.95;;;10.90;96.50;;;;;;5065125;28;20062;-87
2023/12/11 12:32:58;;;;;;;9.80;1.65;;;10.80;96.40;;;;;;5075069;28;20029;-88
2023/12/11 12:35:24;;;;;;;10.50;1.30;;;10.80;96.50;;;;;;5058718;28;20124;-85
2023/12/11 12:37:51;;;;;;;6.80;2.10;;;10.70;96.70;;;;;;5074038;28;20037;-85
2023/12/11 12:40:17;;;;;;;7.72;1.67;;;10.70;96.70;;;;;;5061884;28;20039;-86
2023/12/11 12:42:43;;;;;;;7.45;1.27;;;10.80;96.80;;;;;;5060514;28;20492;-83
2023/12/11 12:45:09;;;;;;;8.40;1.80;;;10.90;96.70;;;;;;5077382;28;20032;-83